createdAt,value
2018-06-28T00:00:52.721Z,19.71
2018-06-28T00:03:21.185Z,19.68
2018-06-28T00:05:50.014Z,19.67
2018-06-28T00:08:18.451Z,19.69
2018-06-28T00:10:46.978Z,19.65
2018-06-28T00:13:15.538Z,19.63
2018-06-28T00:15:44.292Z,19.61
2018-06-28T00:18:12.775Z,19.51
2018-06-28T00:20:41.279Z,19.70
2018-06-28T00:23:09.939Z,19.74
2018-06-28T00:25:38.634Z,19.67
2018-06-28T00:28:07.126Z,19.70
2018-06-28T00:30:35.612Z,19.55
2018-06-28T00:33:08.190Z,19.49
2018-06-28T00:35:36.675Z,19.61
2018-06-28T00:38:05.259Z,19.41
2018-06-28T00:40:34.021Z,19.36
2018-06-28T00:43:02.526Z,19.36
2018-06-28T00:45:31.012Z,19.29
2018-06-28T00:47:59.515Z,19.22
2018-06-28T00:50:27.941Z,19.04
2018-06-28T00:52:56.591Z,18.92
2018-06-28T00:55:25.035Z,18.83
2018-06-28T00:57:53.566Z,18.74
2018-06-28T01:00:22.154Z,18.67
2018-06-28T01:02:50.667Z,18.50
2018-06-28T01:05:19.292Z,18.47
2018-06-28T01:07:47.847Z,18.33
2018-06-28T01:10:16.411Z,18.15
2018-06-28T01:12:44.935Z,17.98
2018-06-28T01:15:13.364Z,17.80
2018-06-28T01:17:42.199Z,17.73
2018-06-28T01:20:10.819Z,17.69
2018-06-28T01:22:39.449Z,17.84
2018-06-28T01:25:07.991Z,17.99
2018-06-28T01:27:36.523Z,18.03
2018-06-28T01:30:06.190Z,18.06
2018-06-28T01:32:34.990Z,18.03
2018-06-28T01:35:03.531Z,18.00
2018-06-28T01:37:32.056Z,17.97
2018-06-28T01:40:00.682Z,17.92
2018-06-28T01:42:41.124Z,17.91
2018-06-28T01:45:09.567Z,18.06
2018-06-28T01:47:38.234Z,17.96
2018-06-28T01:50:06.755Z,18.05
2018-06-28T01:52:35.414Z,18.06
2018-06-28T02:02:43.187Z,17.38
2018-06-28T02:05:11.655Z,17.33
2018-06-28T02:07:40.097Z,17.35
2018-06-28T02:10:08.705Z,17.31
2018-06-28T02:12:37.498Z,17.32
2018-06-28T02:15:06.372Z,17.30
2018-06-28T02:17:34.809Z,17.18
2018-06-28T02:20:03.354Z,17.16
2018-06-28T02:22:31.911Z,17.04
2018-06-28T02:25:00.334Z,16.94
2018-06-28T02:27:28.987Z,16.88
2018-06-28T02:29:57.519Z,16.80
2018-06-28T02:32:25.987Z,17.09
2018-06-28T02:34:54.550Z,17.03
2018-06-28T02:37:23.430Z,16.97
2018-06-28T02:39:52.000Z,16.98
2018-06-28T02:42:20.466Z,16.95
2018-06-28T02:44:48.992Z,16.79
2018-06-28T02:47:17.719Z,16.83
2018-06-28T02:49:46.199Z,16.81
2018-06-28T02:52:14.658Z,16.72
2018-06-28T02:54:44.221Z,16.65
2018-06-28T02:57:12.890Z,16.55
2018-06-28T02:59:41.519Z,16.59
2018-06-28T03:02:10.011Z,16.60
2018-06-28T03:04:39.063Z,16.54
2018-06-28T03:07:07.655Z,16.47
2018-06-28T03:09:36.098Z,16.45
2018-06-28T03:12:04.679Z,16.31
2018-06-28T03:14:33.167Z,16.14
2018-06-28T03:17:01.783Z,16.10
2018-06-28T03:19:30.324Z,16.08
2018-06-28T03:21:58.816Z,15.99
2018-06-28T03:24:27.467Z,15.82
2018-06-28T03:26:56.023Z,15.78
2018-06-28T03:29:24.587Z,15.61
2018-06-28T03:31:53.413Z,15.52
2018-06-28T03:34:22.098Z,15.52
2018-06-28T03:36:50.746Z,15.47
2018-06-28T03:39:19.431Z,15.24
2018-06-28T03:41:47.939Z,15.06
2018-06-28T03:44:16.410Z,14.89
2018-06-28T03:46:45.116Z,14.78
2018-06-28T03:49:13.683Z,14.71
2018-06-28T03:51:42.186Z,14.63
2018-06-28T03:54:10.686Z,14.52
2018-06-28T03:56:39.519Z,14.54
2018-06-28T03:59:08.332Z,14.54
2018-06-28T04:01:36.838Z,14.49
2018-06-28T04:04:05.548Z,14.35
2018-06-28T04:06:34.239Z,14.28
2018-06-28T04:09:02.885Z,14.27
2018-06-28T04:11:31.408Z,14.22
2018-06-28T04:13:59.862Z,14.21
2018-06-28T04:16:28.409Z,14.16
2018-06-28T04:18:56.930Z,14.10
2018-06-28T04:21:25.544Z,14.15
2018-06-28T04:23:54.144Z,14.16
2018-06-28T04:26:22.875Z,14.21
2018-06-28T04:28:51.392Z,14.25
2018-06-28T04:31:20.168Z,14.28
2018-06-28T04:33:48.688Z,14.30
2018-06-28T04:36:17.238Z,14.36
2018-06-28T04:38:45.763Z,14.31
2018-06-28T04:41:14.303Z,14.32
2018-06-28T04:43:42.822Z,14.34
2018-06-28T04:46:11.265Z,14.32
2018-06-28T04:48:39.681Z,14.29
2018-06-28T04:51:08.188Z,14.30
2018-06-28T04:53:36.747Z,14.26
2018-06-28T04:56:05.531Z,14.31
2018-06-28T04:58:34.039Z,14.48
2018-06-28T05:01:02.543Z,14.55
2018-06-28T05:03:31.177Z,14.66
2018-06-28T05:05:59.730Z,14.67
2018-06-28T05:08:28.264Z,14.67
2018-06-28T05:10:56.783Z,14.66
2018-06-28T05:13:25.403Z,14.69
2018-06-28T05:15:53.984Z,14.68
2018-06-28T05:18:22.608Z,14.71
2018-06-28T05:20:51.103Z,14.79
2018-06-28T05:23:19.875Z,14.85
2018-06-28T05:25:48.372Z,14.87
2018-06-28T05:28:16.891Z,14.97
2018-06-28T05:30:49.326Z,15.00
2018-06-28T05:33:17.840Z,15.06
2018-06-28T05:35:46.397Z,15.16
2018-06-28T05:38:14.887Z,15.31
2018-06-28T05:40:43.494Z,15.40
2018-06-28T05:43:11.859Z,15.49
2018-06-28T05:45:40.526Z,15.59
2018-06-28T05:48:09.068Z,15.68
2018-06-28T05:50:37.800Z,15.73
2018-06-28T05:53:06.321Z,15.82
2018-06-28T05:55:35.303Z,15.86
2018-06-28T05:58:04.118Z,15.98
2018-06-28T06:00:32.714Z,16.06
2018-06-28T06:03:01.557Z,16.16
2018-06-28T06:05:30.091Z,16.21
2018-06-28T06:07:58.664Z,16.32
2018-06-28T06:10:27.251Z,16.37
2018-06-28T06:12:55.802Z,16.44
2018-06-28T06:15:24.353Z,16.54
2018-06-28T06:17:52.941Z,16.62
2018-06-28T06:20:21.519Z,16.73
2018-06-28T06:22:50.008Z,16.89
2018-06-28T06:25:18.501Z,16.96
2018-06-28T06:27:46.985Z,17.04
2018-06-28T06:30:15.583Z,17.13
2018-06-28T06:32:44.087Z,17.23
2018-06-28T06:35:12.610Z,17.34
2018-06-28T06:37:41.279Z,17.47
2018-06-28T06:40:09.764Z,17.61
2018-06-28T06:42:38.383Z,17.78
2018-06-28T06:45:07.692Z,17.89
2018-06-28T06:47:36.296Z,17.99
2018-06-28T06:50:05.071Z,18.13
2018-06-28T06:52:33.559Z,18.22
2018-06-28T06:55:02.096Z,18.33
2018-06-28T06:57:30.616Z,18.43
2018-06-28T06:59:59.070Z,18.61
2018-06-28T07:02:27.561Z,18.75
2018-06-28T07:04:56.015Z,18.91
2018-06-28T07:07:24.521Z,19.02
2018-06-28T07:09:53.029Z,19.07
2018-06-28T07:12:21.624Z,19.17
2018-06-28T07:14:50.384Z,19.27
2018-06-28T07:17:19.098Z,19.40
2018-06-28T07:19:47.936Z,19.52
2018-06-28T07:22:16.456Z,19.51
2018-06-28T07:24:44.936Z,19.61
2018-06-28T07:27:13.464Z,19.81
2018-06-28T07:29:42.204Z,19.93
2018-06-28T07:32:10.691Z,19.95
2018-06-28T07:34:39.179Z,20.06
2018-06-28T07:37:07.739Z,20.09
2018-06-28T07:39:36.208Z,20.20
2018-06-28T07:42:04.839Z,20.34
2018-06-28T07:44:33.390Z,20.40
2018-06-28T07:47:01.866Z,20.45
2018-06-28T07:49:30.331Z,20.59
2018-06-28T07:51:58.827Z,20.69
2018-06-28T07:54:28.013Z,20.70
2018-06-28T07:56:56.699Z,20.84
2018-06-28T07:59:25.276Z,20.86
2018-06-28T08:01:53.923Z,20.91
2018-06-28T08:04:22.500Z,21.01
2018-06-28T08:06:51.031Z,21.06
2018-06-28T08:09:19.514Z,21.27
2018-06-28T08:11:48.026Z,21.64
2018-06-28T08:14:16.536Z,21.90
2018-06-28T08:16:45.052Z,21.93
2018-06-28T08:19:13.596Z,22.12
2018-06-28T08:21:42.260Z,22.30
2018-06-28T08:24:10.727Z,22.55
2018-06-28T08:26:39.175Z,22.87
2018-06-28T08:29:07.727Z,23.11
2018-06-28T08:31:36.553Z,23.37
2018-06-28T08:34:05.292Z,23.47
2018-06-28T08:36:33.767Z,23.59
2018-06-28T08:39:02.239Z,23.85
2018-06-28T08:41:30.706Z,23.82
2018-06-28T08:43:59.154Z,23.72
2018-06-28T08:46:27.897Z,23.74
2018-06-28T08:48:56.625Z,23.62
2018-06-28T08:51:25.203Z,23.55
2018-06-28T08:53:53.723Z,23.41
2018-06-28T08:56:22.315Z,23.40
2018-06-28T08:58:50.788Z,23.74
2018-06-28T09:01:19.470Z,23.93
2018-06-28T09:03:47.927Z,23.87
2018-06-28T09:06:16.487Z,23.96
2018-06-28T09:08:45.034Z,24.56
2018-06-28T09:11:13.516Z,24.75
2018-06-28T09:13:41.984Z,24.98
2018-06-28T09:16:10.533Z,25.38
2018-06-28T09:18:43.365Z,25.42
2018-06-28T09:21:11.853Z,25.60
2018-06-28T09:23:40.310Z,25.63
2018-06-28T09:26:08.839Z,25.68
2018-06-28T09:28:37.540Z,25.92
2018-06-28T09:31:06.291Z,25.94
2018-06-28T09:33:34.751Z,25.80
2018-06-28T09:36:03.421Z,25.90
2018-06-28T09:38:31.971Z,25.79
2018-06-28T09:41:00.698Z,26.03
2018-06-28T09:43:29.191Z,26.13
2018-06-28T09:45:57.695Z,26.48
2018-06-28T09:48:26.226Z,26.69
2018-06-28T09:50:54.809Z,27.18
2018-06-28T09:53:23.731Z,27.39
2018-06-28T09:55:52.250Z,27.48
2018-06-28T09:58:20.736Z,27.39
2018-06-28T10:00:49.182Z,27.33
2018-06-28T10:03:17.650Z,27.67
2018-06-28T10:05:46.151Z,27.41
2018-06-28T10:08:14.857Z,27.58
2018-06-28T10:10:43.283Z,28.16
2018-06-28T10:13:11.822Z,28.16
2018-06-28T10:15:40.371Z,29.15
2018-06-28T10:18:08.960Z,29.01
2018-06-28T10:20:37.422Z,28.69
2018-06-28T10:23:05.963Z,28.22
2018-06-28T10:25:34.557Z,28.18
2018-06-28T10:28:03.084Z,27.80
2018-06-28T10:30:31.582Z,27.56
2018-06-28T10:33:00.090Z,29.37
2018-06-28T10:35:28.619Z,30.05
2018-06-28T10:37:58.164Z,29.88
2018-06-28T10:40:26.631Z,30.28
2018-06-28T10:42:55.098Z,30.42
2018-06-28T10:45:23.723Z,30.73
2018-06-28T10:47:52.211Z,30.66
2018-06-28T10:50:20.802Z,31.42
2018-06-28T10:52:49.332Z,31.30
2018-06-28T10:55:18.467Z,31.90
2018-06-28T10:57:48.294Z,31.98
2018-06-28T11:00:17.373Z,31.00
2018-06-28T11:02:45.859Z,30.01
2018-06-28T11:05:14.295Z,30.41
2018-06-28T11:07:42.781Z,30.60
2018-06-28T11:10:11.259Z,29.51
2018-06-28T11:12:43.869Z,28.85
2018-06-28T11:15:12.320Z,28.76
2018-06-28T11:17:41.006Z,28.05
2018-06-28T11:20:09.533Z,28.36
2018-06-28T11:22:38.011Z,28.15
2018-06-28T11:25:06.664Z,28.58
2018-06-28T11:27:35.122Z,29.04
2018-06-28T11:30:07.994Z,28.64
2018-06-28T11:32:36.482Z,28.36
2018-06-28T11:35:05.030Z,28.36
2018-06-28T11:37:33.582Z,28.22
2018-06-28T11:40:02.089Z,27.72
2018-06-28T11:42:30.555Z,27.44
2018-06-28T11:44:59.049Z,27.46
2018-06-28T11:47:27.455Z,27.63
2018-06-28T11:49:56.018Z,27.69
2018-06-28T11:52:24.599Z,27.45
2018-06-28T11:54:53.088Z,27.56
2018-06-28T11:57:21.541Z,27.48
2018-06-28T11:59:50.106Z,27.56
2018-06-28T12:02:18.648Z,27.37
2018-06-28T12:04:47.171Z,27.13
2018-06-28T12:07:15.627Z,26.78
2018-06-28T12:09:44.290Z,26.50
2018-06-28T12:12:12.871Z,26.55
2018-06-28T12:14:41.419Z,26.92
2018-06-28T12:17:09.875Z,27.48
2018-06-28T12:19:38.404Z,28.94
2018-06-28T12:22:07.010Z,29.31
2018-06-28T12:24:35.675Z,28.10
2018-06-28T12:27:04.404Z,27.89
2018-06-28T12:29:32.971Z,27.43
2018-06-28T12:32:01.564Z,27.13
2018-06-28T12:34:30.098Z,26.97
2018-06-28T12:36:58.551Z,26.48
2018-06-28T12:39:27.083Z,26.25
2018-06-28T12:41:55.489Z,26.24
2018-06-28T12:44:24.027Z,26.50
2018-06-28T12:48:01.390Z,27.26
2018-06-28T12:50:29.937Z,27.38
2018-06-28T12:53:02.596Z,27.53
2018-06-28T12:55:42.781Z,26.98
2018-06-28T12:58:11.323Z,26.67
2018-06-28T13:00:39.833Z,26.56
2018-06-28T13:03:08.314Z,26.29
2018-06-28T13:05:36.876Z,26.22
2018-06-28T13:08:05.480Z,26.28
2018-06-28T13:10:34.644Z,26.45
2018-06-28T13:13:03.297Z,26.04
2018-06-28T13:15:31.787Z,25.87
2018-06-28T13:18:00.318Z,25.50
2018-06-28T13:20:28.915Z,25.58
2018-06-28T13:22:57.388Z,25.85
2018-06-28T13:25:25.826Z,25.83
2018-06-28T13:27:54.356Z,25.13
2018-06-28T13:30:23.786Z,24.74
2018-06-28T13:32:52.416Z,24.59
2018-06-28T13:35:20.963Z,24.59
2018-06-28T13:37:49.543Z,24.41
2018-06-28T13:40:18.103Z,24.46
2018-06-28T13:42:46.734Z,24.75
2018-06-28T13:45:15.255Z,24.86
2018-06-28T13:47:43.824Z,24.99
2018-06-28T13:50:12.531Z,25.01
2018-06-28T13:52:41.167Z,25.04
2018-06-28T13:55:09.712Z,25.07
2018-06-28T13:57:38.562Z,25.76
2018-06-28T14:00:07.059Z,26.32
2018-06-28T14:02:35.760Z,26.78
2018-06-28T14:05:04.391Z,26.39
2018-06-28T14:07:32.938Z,28.33
2018-06-28T14:10:01.522Z,33.36
2018-06-28T14:12:30.152Z,37.55
2018-06-28T14:14:58.690Z,36.96
2018-06-28T14:17:27.315Z,32.90
2018-06-28T14:19:55.831Z,29.95
2018-06-28T14:22:24.436Z,29.64
2018-06-28T14:24:57.302Z,29.35
2018-06-28T14:27:25.795Z,28.72
2018-06-28T14:29:54.230Z,28.39
2018-06-28T14:32:22.915Z,28.30
2018-06-28T14:34:51.418Z,27.57
2018-06-28T14:37:19.990Z,27.42
2018-06-28T14:39:48.512Z,27.15
2018-06-28T14:42:17.185Z,26.85
2018-06-28T14:44:45.731Z,26.70
2018-06-28T14:47:14.314Z,26.17
2018-06-28T14:49:42.854Z,25.72
2018-06-28T14:52:11.507Z,25.80
2018-06-28T14:54:40.016Z,25.83
2018-06-28T14:57:08.633Z,26.00
2018-06-28T14:59:37.998Z,26.52
2018-06-28T15:02:06.656Z,27.27
2018-06-28T15:04:35.241Z,27.95
2018-06-28T15:07:03.791Z,27.86
2018-06-28T15:09:32.467Z,28.31
2018-06-28T15:12:00.987Z,28.38
2018-06-28T15:14:29.507Z,27.95
2018-06-28T15:16:58.076Z,27.71
2018-06-28T15:19:26.737Z,27.59
2018-06-28T15:21:55.278Z,27.57
2018-06-28T15:24:24.091Z,27.52
2018-06-28T15:26:53.894Z,27.87
2018-06-28T15:29:22.436Z,28.70
2018-06-28T15:31:50.890Z,30.80
2018-06-28T15:34:19.786Z,30.30
2018-06-28T15:36:48.406Z,29.13
2018-06-28T15:39:16.991Z,28.91
2018-06-28T15:41:45.625Z,28.79
2018-06-28T15:44:14.430Z,28.39
2018-06-28T15:46:42.942Z,28.21
2018-06-28T15:49:11.496Z,28.11
2018-06-28T15:51:40.001Z,27.53
2018-06-28T15:54:08.664Z,27.19
2018-06-28T15:56:37.259Z,27.06
2018-06-28T15:59:05.718Z,26.75
2018-06-28T16:01:34.502Z,26.47
2018-06-28T16:04:03.061Z,26.35
2018-06-28T16:06:31.689Z,26.26
2018-06-28T16:09:00.144Z,26.29
2018-06-28T16:11:28.663Z,27.94
2018-06-28T16:13:57.251Z,30.74
2018-06-28T16:16:25.739Z,35.23
2018-06-28T16:18:54.408Z,37.95
2018-06-28T16:21:23.006Z,39.04
2018-06-28T16:23:51.447Z,36.56
2018-06-28T16:26:19.994Z,32.53
2018-06-28T16:28:48.967Z,29.81
2018-06-28T16:31:17.741Z,28.73
2018-06-28T16:33:46.166Z,27.66
2018-06-28T16:36:14.705Z,27.10
2018-06-28T16:38:43.296Z,26.67
2018-06-28T16:41:11.739Z,26.55
2018-06-28T16:43:40.246Z,26.62
2018-06-28T16:46:08.776Z,26.46
2018-06-28T16:48:37.286Z,26.60
2018-06-28T16:51:06.209Z,26.98
2018-06-28T16:53:34.867Z,27.20
2018-06-28T16:56:03.562Z,27.77
2018-06-28T16:58:32.062Z,27.72
2018-06-28T17:01:00.617Z,27.61
2018-06-28T17:03:29.073Z,28.06
2018-06-28T17:05:57.660Z,30.05
2018-06-28T17:08:26.505Z,31.90
2018-06-28T17:10:55.048Z,32.75
2018-06-28T17:13:23.600Z,31.16
2018-06-28T17:15:52.098Z,29.90
2018-06-28T17:18:20.610Z,28.54
2018-06-28T17:20:49.118Z,27.00
2018-06-28T17:23:17.568Z,26.61
2018-06-28T17:25:46.804Z,26.25
2018-06-28T17:28:15.380Z,26.27
2018-06-28T17:30:43.875Z,26.34
2018-06-28T17:33:12.499Z,26.35
2018-06-28T17:35:41.088Z,26.38
2018-06-28T17:38:09.636Z,26.90
2018-06-28T17:40:38.297Z,26.94
2018-06-28T17:43:07.067Z,26.97
2018-06-28T17:45:35.714Z,26.87
2018-06-28T17:48:04.535Z,26.83
2018-06-28T17:50:33.094Z,26.58
2018-06-28T17:53:01.686Z,26.13
2018-06-28T17:55:30.379Z,25.54
2018-06-28T17:57:58.994Z,25.62
2018-06-28T18:00:27.635Z,24.95
2018-06-28T18:02:56.302Z,24.69
2018-06-28T18:05:24.983Z,24.62
2018-06-28T18:07:53.540Z,24.62
2018-06-28T18:10:22.392Z,24.38
2018-06-28T18:12:50.857Z,24.30
2018-06-28T18:15:19.425Z,24.32
2018-06-28T18:17:48.509Z,24.37
2018-06-28T18:20:17.322Z,24.30
2018-06-28T18:22:53.370Z,24.02
2018-06-28T18:25:22.320Z,23.87
2018-06-28T18:27:50.914Z,23.65
2018-06-28T18:30:19.528Z,23.53
2018-06-28T18:32:48.064Z,23.51
2018-06-28T18:35:16.530Z,23.38
2018-06-28T18:37:45.116Z,23.31
2018-06-28T18:40:13.679Z,23.17
2018-06-28T18:42:42.202Z,23.09
2018-06-28T18:45:10.711Z,22.72
2018-06-28T18:47:39.240Z,22.53
2018-06-28T18:50:07.800Z,22.48
2018-06-28T18:52:36.426Z,22.42
2018-06-28T18:55:04.979Z,22.39
2018-06-28T18:57:33.595Z,22.31
2018-06-28T19:00:02.059Z,22.25
2018-06-28T19:02:30.587Z,22.21
2018-06-28T19:04:59.236Z,22.13
2018-06-28T19:07:27.813Z,22.03
2018-06-28T19:11:05.418Z,21.93
2018-06-28T19:13:38.129Z,21.78
2018-06-28T19:16:12.375Z,21.65
2018-06-28T19:18:40.954Z,21.51
2018-06-28T19:21:14.808Z,21.35
2018-06-28T19:23:48.535Z,21.20
2018-06-28T19:26:17.668Z,21.14
2018-06-28T19:28:46.697Z,21.09
2018-06-28T19:31:20.692Z,21.04
2018-06-28T19:33:49.362Z,21.09
2018-06-28T19:36:18.303Z,21.05
2018-06-28T19:38:52.583Z,21.01
2018-06-28T19:41:26.377Z,20.99
2018-06-28T19:43:54.990Z,21.06
2018-06-28T19:46:24.981Z,21.03
2018-06-28T19:48:53.567Z,20.95
2018-06-28T19:51:27.536Z,20.83
2018-06-28T19:53:56.141Z,20.80
2018-06-28T19:56:24.932Z,20.80
2018-06-28T19:58:53.498Z,20.74
2018-06-28T20:01:27.195Z,20.64
2018-06-28T20:04:01.179Z,20.60
2018-06-28T20:06:29.638Z,20.59
2018-06-28T20:08:58.324Z,20.54
2018-06-28T20:11:27.049Z,20.49
2018-06-28T20:14:00.904Z,20.41
2018-06-28T20:16:34.813Z,20.35
2018-06-28T20:19:08.865Z,20.33
2018-06-28T20:21:37.428Z,20.33
2018-06-28T20:24:06.112Z,20.29
2018-06-28T20:26:39.871Z,20.38
2018-06-28T20:30:12.701Z,20.49
2018-06-28T20:32:46.534Z,20.56
2018-06-28T20:35:15.296Z,20.52
2018-06-28T20:37:44.222Z,20.47
2018-06-28T20:40:12.774Z,20.49
2018-06-28T20:42:41.355Z,20.64
2018-06-28T20:45:09.987Z,20.73
2018-06-28T20:47:38.464Z,20.77
2018-06-28T20:50:07.181Z,20.74
2018-06-28T20:52:35.811Z,20.73
2018-06-28T20:55:04.460Z,20.62
2018-06-28T20:57:33.246Z,20.44
2018-06-28T21:00:01.811Z,20.35
2018-06-28T21:02:30.730Z,20.25
2018-06-28T21:04:59.242Z,20.08
2018-06-28T21:07:28.023Z,19.90
2018-06-28T21:09:56.616Z,19.84
2018-06-28T21:12:25.171Z,19.68
2018-06-28T21:14:53.774Z,19.51
2018-06-28T21:17:22.383Z,19.45
2018-06-28T21:19:51.654Z,19.35
2018-06-28T21:22:20.711Z,19.27
2018-06-28T21:24:49.318Z,19.28
2018-06-28T21:27:17.838Z,19.23
2018-06-28T21:29:46.878Z,19.15
2018-06-28T21:32:15.502Z,19.14
2018-06-28T21:34:44.063Z,19.16
2018-06-28T21:37:12.560Z,19.13
2018-06-28T21:39:41.063Z,19.15
2018-06-28T21:42:09.533Z,19.10
2018-06-28T21:44:38.171Z,19.09
2018-06-28T21:47:06.765Z,19.13
2018-06-28T21:49:35.259Z,19.14
2018-06-28T21:52:03.806Z,19.12
2018-06-28T21:54:32.243Z,19.10
2018-06-28T21:57:00.750Z,19.11
2018-06-28T21:59:29.482Z,19.10
2018-06-28T22:01:58.028Z,19.03
2018-06-28T22:04:26.450Z,19.00
2018-06-28T22:06:55.089Z,19.00
2018-06-28T22:09:23.570Z,19.01
2018-06-28T22:11:52.123Z,19.05
2018-06-28T22:14:20.784Z,19.02
2018-06-28T22:16:49.200Z,18.96
2018-06-28T22:19:17.655Z,18.89
2018-06-28T22:21:46.187Z,18.81
2018-06-28T22:24:14.667Z,18.77
2018-06-28T22:26:43.214Z,18.72
2018-06-28T22:29:11.708Z,18.72
2018-06-28T22:31:40.234Z,18.71
2018-06-28T22:34:08.834Z,18.79
2018-06-28T22:36:37.293Z,18.82
2018-06-28T22:39:09.164Z,18.84
2018-06-28T22:41:37.959Z,18.85
2018-06-28T22:44:06.723Z,18.87
2018-06-28T22:46:35.548Z,18.80
2018-06-28T22:49:04.131Z,18.81
2018-06-28T22:51:32.672Z,18.82
2018-06-28T22:54:01.138Z,18.76
2018-06-28T22:56:29.642Z,18.71
2018-06-28T22:58:58.117Z,18.65
2018-06-28T23:01:26.618Z,18.68
2018-06-28T23:03:55.175Z,18.64
2018-06-28T23:06:23.731Z,18.61
2018-06-28T23:08:52.343Z,18.56
2018-06-28T23:11:20.845Z,18.44
2018-06-28T23:13:49.291Z,18.39
2018-06-28T23:16:17.870Z,18.34
2018-06-28T23:18:46.357Z,18.30
2018-06-28T23:21:14.822Z,18.27
2018-06-28T23:23:43.324Z,18.27
2018-06-28T23:26:11.767Z,18.26
2018-06-28T23:28:40.284Z,18.25
2018-06-28T23:31:08.810Z,18.28
2018-06-28T23:33:37.388Z,18.36
2018-06-28T23:36:06.019Z,18.34
2018-06-28T23:38:34.510Z,18.35
2018-06-28T23:41:03.101Z,18.38
2018-06-28T23:43:32.131Z,18.49
2018-06-28T23:46:00.550Z,18.58
2018-06-28T23:48:29.066Z,18.59
2018-06-28T23:50:57.520Z,18.66
2018-06-28T23:53:26.334Z,18.75
2018-06-28T23:55:54.783Z,18.78
2018-06-28T23:58:23.340Z,18.79
